sensor_id;sensor_type;location;lat;lon;timestamp;pressure;altitude;pressure_sealevel;temperature;humidity
65880;BME280;52661;51.364;6.054;2022-12-07T00:01:42;101431.19;;;4.11;100.00
65880;BME280;52661;51.364;6.054;2022-12-07T00:04:10;101438.00;;;4.09;100.00
65880;BME280;52661;51.364;6.054;2022-12-07T00:06:37;101441.81;;;4.08;100.00
65880;BME280;52661;51.364;6.054;2022-12-07T00:09:04;101435.38;;;4.00;100.00
65880;BME280;52661;51.364;6.054;2022-12-07T00:11:30;101433.78;;;3.99;100.00
65880;BME280;52661;51.364;6.054;2022-12-07T00:13:59;101434.13;;;3.97;100.00
65880;BME280;52661;51.364;6.054;2022-12-07T00:16:27;101433.34;;;3.97;100.00
65880;BME280;52661;51.364;6.054;2022-12-07T00:18:53;101433.66;;;3.95;100.00
65880;BME280;52661;51.364;6.054;2022-12-07T00:21:21;101432.56;;;3.96;100.00
65880;BME280;52661;51.364;6.054;2022-12-07T00:23:48;101435.88;;;3.93;100.00
65880;BME280;52661;51.364;6.054;2022-12-07T00:26:25;101424.34;;;3.93;100.00
65880;BME280;52661;51.364;6.054;2022-12-07T00:28:53;101425.94;;;3.94;100.00
65880;BME280;52661;51.364;6.054;2022-12-07T00:31:21;101419.78;;;3.93;100.00
65880;BME280;52661;51.364;6.054;2022-12-07T00:33:47;101421.97;;;3.91;100.00
65880;BME280;52661;51.364;6.054;2022-12-07T00:36:15;101420.75;;;3.89;100.00
65880;BME280;52661;51.364;6.054;2022-12-07T00:38:41;101408.78;;;3.86;100.00
65880;BME280;52661;51.364;6.054;2022-12-07T00:41:12;101420.31;;;3.87;100.00
65880;BME280;52661;51.364;6.054;2022-12-07T00:43:39;101417.47;;;3.83;100.00
65880;BME280;52661;51.364;6.054;2022-12-07T00:46:05;101416.22;;;3.81;100.00
65880;BME280;52661;51.364;6.054;2022-12-07T00:48:30;101421.44;;;3.77;100.00
65880;BME280;52661;51.364;6.054;2022-12-07T00:50:56;101416.41;;;3.76;100.00
65880;BME280;52661;51.364;6.054;2022-12-07T00:53:22;101417.66;;;3.78;100.00
65880;BME280;52661;51.364;6.054;2022-12-07T00:55:47;101412.94;;;3.75;100.00
65880;BME280;52661;51.364;6.054;2022-12-07T00:58:13;101408.81;;;3.78;100.00
65880;BME280;52661;51.364;6.054;2022-12-07T01:00:40;101415.28;;;3.77;100.00
65880;BME280;52661;51.364;6.054;2022-12-07T01:03:07;101410.69;;;3.77;100.00
65880;BME280;52661;51.364;6.054;2022-12-07T01:05:33;101396.03;;;3.75;100.00
65880;BME280;52661;51.364;6.054;2022-12-07T01:07:58;101400.31;;;3.76;100.00
65880;BME280;52661;51.364;6.054;2022-12-07T01:10:24;101397.50;;;3.72;100.00
65880;BME280;52661;51.364;6.054;2022-12-07T01:12:49;101400.31;;;3.76;100.00
65880;BME280;52661;51.364;6.054;2022-12-07T01:15:15;101400.31;;;3.76;100.00
65880;BME280;52661;51.364;6.054;2022-12-07T01:17:40;101404.09;;;3.75;100.00
65880;BME280;52661;51.364;6.054;2022-12-07T01:20:06;101407.09;;;3.73;100.00
65880;BME280;52661;51.364;6.054;2022-12-07T01:22:39;101401.13;;;3.68;100.00
65880;BME280;52661;51.364;6.054;2022-12-07T01:25:06;101403.22;;;3.62;100.00
65880;BME280;52661;51.364;6.054;2022-12-07T01:27:32;101395.16;;;3.62;100.00
65880;BME280;52661;51.364;6.054;2022-12-07T01:29:58;101383.31;;;3.63;100.00
65880;BME280;52661;51.364;6.054;2022-12-07T01:32:23;101397.69;;;3.59;100.00
65880;BME280;52661;51.364;6.054;2022-12-07T01:34:49;101396.78;;;3.55;100.00
65880;BME280;52661;51.364;6.054;2022-12-07T01:37:14;101410.41;;;3.50;100.00
65880;BME280;52661;51.364;6.054;2022-12-07T01:39:39;101401.09;;;3.47;100.00
65880;BME280;52661;51.364;6.054;2022-12-07T01:42:09;101403.31;;;3.45;100.00
65880;BME280;52661;51.364;6.054;2022-12-07T01:47:39;101406.19;;;3.40;100.00
65880;BME280;52661;51.364;6.054;2022-12-07T01:50:05;101411.34;;;3.45;100.00
65880;BME280;52661;51.364;6.054;2022-12-07T01:52:33;101403.16;;;3.41;100.00
65880;BME280;52661;51.364;6.054;2022-12-07T01:55:04;101415.47;;;3.42;100.00
65880;BME280;52661;51.364;6.054;2022-12-07T01:57:33;101406.63;;;3.42;100.00
65880;BME280;52661;51.364;6.054;2022-12-07T02:00:00;101404.91;;;3.37;100.00
65880;BME280;52661;51.364;6.054;2022-12-07T02:02:31;101401.44;;;3.37;100.00
65880;BME280;52661;51.364;6.054;2022-12-07T02:04:59;101399.38;;;3.42;100.00
65880;BME280;52661;51.364;6.054;2022-12-07T02:07:26;101394.31;;;3.41;100.00
65880;BME280;52661;51.364;6.054;2022-12-07T02:09:53;101400.03;;;3.39;100.00
65880;BME280;52661;51.364;6.054;2022-12-07T02:12:19;101392.44;;;3.41;100.00
65880;BME280;52661;51.364;6.054;2022-12-07T02:14:45;101388.00;;;3.45;100.00
65880;BME280;52661;51.364;6.054;2022-12-07T02:27:50;101389.25;;;3.48;100.00
65880;BME280;52661;51.364;6.054;2022-12-07T02:30:20;101404.09;;;3.45;100.00
65880;BME280;52661;51.364;6.054;2022-12-07T02:32:49;101402.34;;;3.50;100.00
65880;BME280;52661;51.364;6.054;2022-12-07T02:40:43;101393.06;;;3.47;100.00
65880;BME280;52661;51.364;6.054;2022-12-07T02:43:28;101396.84;;;3.46;100.00
65880;BME280;52661;51.364;6.054;2022-12-07T02:46:02;101392.91;;;3.43;100.00
65880;BME280;52661;51.364;6.054;2022-12-07T02:51:33;101387.34;;;3.48;100.00
65880;BME280;52661;51.364;6.054;2022-12-07T02:53:59;101386.56;;;3.48;100.00
65880;BME280;52661;51.364;6.054;2022-12-07T03:00:09;101384.78;;;3.52;100.00
65880;BME280;52661;51.364;6.054;2022-12-07T03:08:44;101396.31;;;3.53;100.00
65880;BME280;52661;51.364;6.054;2022-12-07T03:11:03;101385.91;;;3.51;100.00
65880;BME280;52661;51.364;6.054;2022-12-07T03:13:52;101391.25;;;3.51;100.00
65880;BME280;52661;51.364;6.054;2022-12-07T03:18:48;101392.72;;;3.48;100.00
65880;BME280;52661;51.364;6.054;2022-12-07T03:21:18;101393.53;;;3.40;100.00
65880;BME280;52661;51.364;6.054;2022-12-07T03:23:49;101390.84;;;3.40;100.00
65880;BME280;52661;51.364;6.054;2022-12-07T03:26:17;101385.47;;;3.40;100.00
65880;BME280;52661;51.364;6.054;2022-12-07T03:28:50;101390.44;;;3.30;100.00
65880;BME280;52661;51.364;6.054;2022-12-07T03:31:29;101386.19;;;3.29;100.00
65880;BME280;52661;51.364;6.054;2022-12-07T03:34:12;101383.50;;;3.29;100.00
65880;BME280;52661;51.364;6.054;2022-12-07T03:37:01;101395.94;;;3.33;100.00
65880;BME280;52661;51.364;6.054;2022-12-07T03:39:41;101392.97;;;3.26;100.00
65880;BME280;52661;51.364;6.054;2022-12-07T03:42:10;101384.13;;;3.26;100.00
65880;BME280;52661;51.364;6.054;2022-12-07T03:44:36;101379.41;;;3.23;100.00
65880;BME280;52661;51.364;6.054;2022-12-07T03:47:26;101390.94;;;3.23;100.00
65880;BME280;52661;51.364;6.054;2022-12-07T03:50:07;101387.66;;;3.18;100.00
65880;BME280;52661;51.364;6.054;2022-12-07T03:52:45;101386.22;;;3.20;100.00
65880;BME280;52661;51.364;6.054;2022-12-07T03:55:22;101384.00;;;3.22;100.00
65880;BME280;52661;51.364;6.054;2022-12-07T03:57:52;101387.00;;;3.21;100.00
65880;BME280;52661;51.364;6.054;2022-12-07T04:00:20;101393.31;;;3.25;100.00
65880;BME280;52661;51.364;6.054;2022-12-07T04:02:45;101382.88;;;3.23;100.00
65880;BME280;52661;51.364;6.054;2022-12-07T04:05:11;101394.41;;;3.24;100.00
65880;BME280;52661;51.364;6.054;2022-12-07T04:07:36;101390.00;;;3.19;100.00
65880;BME280;52661;51.364;6.054;2022-12-07T04:10:03;101384.00;;;3.22;100.00
65880;BME280;52661;51.364;6.054;2022-12-07T04:12:28;101385.72;;;3.27;100.00
65880;BME280;52661;51.364;6.054;2022-12-07T04:14:53;101379.56;;;3.26;100.00
65880;BME280;52661;51.364;6.054;2022-12-07T04:17:18;101382.25;;;3.26;100.00
65880;BME280;52661;51.364;6.054;2022-12-07T04:19:44;101390.44;;;3.30;100.00
65880;BME280;52661;51.364;6.054;2022-12-07T04:22:09;101385.69;;;3.35;100.00
65880;BME280;52661;51.364;6.054;2022-12-07T04:24:35;101392.00;;;3.31;100.00
65880;BME280;52661;51.364;6.054;2022-12-07T04:27:00;101398.34;;;3.26;100.00
65880;BME280;52661;51.364;6.054;2022-12-07T04:29:26;101386.66;;;3.31;100.00
65880;BME280;52661;51.364;6.054;2022-12-07T04:31:51;101385.19;;;3.33;100.00
65880;BME280;52661;51.364;6.054;2022-12-07T04:34:18;101380.19;;;3.32;100.00
65880;BME280;52661;51.364;6.054;2022-12-07T04:36:44;101372.28;;;3.27;100.00
65880;BME280;52661;51.364;6.054;2022-12-07T04:39:21;101371.19;;;3.28;100.00
65880;BME280;52661;51.364;6.054;2022-12-07T04:41:47;101372.78;;;3.29;100.00
65880;BME280;52661;51.364;6.054;2022-12-07T04:44:12;101372.44;;;3.30;100.00
65880;BME280;52661;51.364;6.054;2022-12-07T04:46:39;101369.09;;;3.33;100.00
65880;BME280;52661;51.364;6.054;2022-12-07T04:49:05;101367.41;;;3.29;100.00
65880;BME280;52661;51.364;6.054;2022-12-07T04:51:30;101373.53;;;3.29;100.00
65880;BME280;52661;51.364;6.054;2022-12-07T04:53:56;101375.47;;;3.29;100.00
65880;BME280;52661;51.364;6.054;2022-12-07T04:56:23;101372.13;;;3.32;100.00
65880;BME280;52661;51.364;6.054;2022-12-07T04:58:49;101370.22;;;3.32;100.00
65880;BME280;52661;51.364;6.054;2022-12-07T05:01:16;101377.81;;;3.30;100.00
65880;BME280;52661;51.364;6.054;2022-12-07T05:03:42;101374.34;;;3.30;100.00
65880;BME280;52661;51.364;6.054;2022-12-07T05:06:09;101371.00;;;3.33;100.00
65880;BME280;52661;51.364;6.054;2022-12-07T05:08:36;101366.41;;;3.33;100.00
65880;BME280;52661;51.364;6.054;2022-12-07T05:11:02;101366.91;;;3.35;100.00
65880;BME280;52661;51.364;6.054;2022-12-07T05:13:28;101367.69;;;3.36;100.00
65880;BME280;52661;51.364;6.054;2022-12-07T05:15:53;101358.38;;;3.33;100.00
65880;BME280;52661;51.364;6.054;2022-12-07T05:18:19;101366.91;;;3.35;100.00
65880;BME280;52661;51.364;6.054;2022-12-07T05:20:45;101371.78;;;3.33;100.00
65880;BME280;52661;51.364;6.054;2022-12-07T05:23:11;101373.66;;;3.41;100.00
65880;BME280;52661;51.364;6.054;2022-12-07T05:25:36;101374.00;;;3.40;100.00
65880;BME280;52661;51.364;6.054;2022-12-07T05:28:02;101388.38;;;3.35;100.00
65880;BME280;52661;51.364;6.054;2022-12-07T05:30:28;101389.16;;;3.36;100.00
65880;BME280;52661;51.364;6.054;2022-12-07T05:32:53;101384.25;;;3.38;100.00
65880;BME280;52661;51.364;6.054;2022-12-07T05:35:19;101382.78;;;3.40;100.00
65880;BME280;52661;51.364;6.054;2022-12-07T05:37:45;101387.84;;;3.42;100.00
65880;BME280;52661;51.364;6.054;2022-12-07T05:40:12;101379.81;;;3.42;100.00
65880;BME280;52661;51.364;6.054;2022-12-07T05:42:38;101376.03;;;3.43;100.00
65880;BME280;52661;51.364;6.054;2022-12-07T05:45:04;101366.22;;;3.47;100.00
65880;BME280;52661;51.364;6.054;2022-12-07T05:47:30;101350.88;;;3.47;100.00
65880;BME280;52661;51.364;6.054;2022-12-07T05:49:55;101360.06;;;3.46;100.00
65880;BME280;52661;51.364;6.054;2022-12-07T05:52:21;101360.84;;;3.47;100.00
65880;BME280;52661;51.364;6.054;2022-12-07T05:54:46;101366.22;;;3.47;100.00
65880;BME280;52661;51.364;6.054;2022-12-07T05:57:11;101363.84;;;3.45;100.00
65880;BME280;52661;51.364;6.054;2022-12-07T05:59:37;101365.28;;;3.43;100.00
65880;BME280;52661;51.364;6.054;2022-12-07T06:02:10;101359.13;;;3.42;100.00
65880;BME280;52661;51.364;6.054;2022-12-07T06:04:38;101359.13;;;3.42;100.00
65880;BME280;52661;51.364;6.054;2022-12-07T06:07:04;101362.13;;;3.41;100.00
65880;BME280;52661;51.364;6.054;2022-12-07T06:09:30;101364.22;;;3.35;100.00
65880;BME280;52661;51.364;6.054;2022-12-07T06:11:56;101371.34;;;3.31;100.00
65880;BME280;52661;51.364;6.054;2022-12-07T06:14:41;101364.72;;;3.29;100.00
65880;BME280;52661;51.364;6.054;2022-12-07T06:17:07;101369.31;;;3.28;100.00
65880;BME280;52661;51.364;6.054;2022-12-07T06:19:33;101365.69;;;3.24;100.00
65880;BME280;52661;51.364;6.054;2022-12-07T06:21:59;101366.63;;;3.28;100.00
65880;BME280;52661;51.364;6.054;2022-12-07T06:24:25;101370.25;;;3.24;100.00
65880;BME280;52661;51.364;6.054;2022-12-07T06:26:50;101359.41;;;3.20;100.00
65880;BME280;52661;51.364;6.054;2022-12-07T06:29:16;101361.47;;;3.15;100.00
65880;BME280;52661;51.364;6.054;2022-12-07T06:31:42;101355.00;;;3.16;100.00
65880;BME280;52661;51.364;6.054;2022-12-07T06:34:13;101360.84;;;3.09;100.00
65880;BME280;52661;51.364;6.054;2022-12-07T06:36:39;101358.97;;;3.10;100.00
65880;BME280;52661;51.364;6.054;2022-12-07T06:39:05;101357.88;;;3.11;100.00
65880;BME280;52661;51.364;6.054;2022-12-07T06:41:31;101356.59;;;3.08;100.00
65880;BME280;52661;51.364;6.054;2022-12-07T06:43:56;101354.53;;;3.14;100.00
65880;BME280;52661;51.364;6.054;2022-12-07T06:46:22;101364.78;;;3.12;100.00
65880;BME280;52661;51.364;6.054;2022-12-07T06:48:47;101371.41;;;3.14;100.00
65880;BME280;52661;51.364;6.054;2022-12-07T06:51:13;101367.81;;;3.10;100.00
65880;BME280;52661;51.364;6.054;2022-12-07T06:53:38;101367.47;;;3.12;100.00
65880;BME280;52661;51.364;6.054;2022-12-07T06:56:04;101365.44;;;3.09;100.00
65880;BME280;52661;51.364;6.054;2022-12-07T06:58:30;101369.22;;;3.08;100.00
65880;BME280;52661;51.364;6.054;2022-12-07T07:00:55;101366.88;;;3.06;100.00
65880;BME280;52661;51.364;6.054;2022-12-07T07:03:21;101362.94;;;3.04;100.00
65880;BME280;52661;51.364;6.054;2022-12-07T07:05:46;101368.13;;;3.09;100.00
65880;BME280;52661;51.364;6.054;2022-12-07T07:08:12;101366.53;;;3.08;100.00
65880;BME280;52661;51.364;6.054;2022-12-07T07:10:38;101370.19;;;3.03;100.00
65880;BME280;52661;51.364;6.054;2022-12-07T07:13:04;101368.31;;;3.04;100.00
65880;BME280;52661;51.364;6.054;2022-12-07T07:15:30;101367.69;;;2.98;100.00
65880;BME280;52661;51.364;6.054;2022-12-07T07:17:55;101375.56;;;3.03;100.00
65880;BME280;52661;51.364;6.054;2022-12-07T07:20:21;101370.84;;;3.00;100.00
65880;BME280;52661;51.364;6.054;2022-12-07T07:22:47;101367.38;;;3.00;100.00
65880;BME280;52661;51.364;6.054;2022-12-07T07:25:13;101367.09;;;2.92;100.00
65880;BME280;52661;51.364;6.054;2022-12-07T07:27:38;101366.44;;;2.95;100.00
65880;BME280;52661;51.364;6.054;2022-12-07T07:30:04;101363.41;;;2.97;100.00
65880;BME280;52661;51.364;6.054;2022-12-07T07:32:30;101369.56;;;2.97;100.00
65880;BME280;52661;51.364;6.054;2022-12-07T07:34:55;101371.81;;;2.95;100.00
65880;BME280;52661;51.364;6.054;2022-12-07T07:37:20;101376.69;;;2.93;100.00
65880;BME280;52661;51.364;6.054;2022-12-07T07:39:46;101374.97;;;2.89;100.00
65880;BME280;52661;51.364;6.054;2022-12-07T07:42:11;101374.19;;;2.88;100.00
65880;BME280;52661;51.364;6.054;2022-12-07T07:44:36;101380.81;;;2.91;100.00
65880;BME280;52661;51.364;6.054;2022-12-07T07:47:03;101379.22;;;2.90;100.00
65880;BME280;52661;51.364;6.054;2022-12-07T07:49:28;101372.47;;;2.84;100.00
65880;BME280;52661;51.364;6.054;2022-12-07T07:51:53;101379.41;;;2.85;100.00
65880;BME280;52661;51.364;6.054;2022-12-07T07:54:19;101380.50;;;2.84;100.00
65880;BME280;52661;51.364;6.054;2022-12-07T07:56:44;101380.19;;;2.85;100.00
65880;BME280;52661;51.364;6.054;2022-12-07T07:59:09;101377.97;;;2.87;100.00
65880;BME280;52661;51.364;6.054;2022-12-07T08:01:35;101377.66;;;2.89;100.00
65880;BME280;52661;51.364;6.054;2022-12-07T08:04:00;101383.19;;;2.84;100.00
65880;BME280;52661;51.364;6.054;2022-12-07T08:06:26;101383.03;;;2.89;100.00
65880;BME280;52661;51.364;6.054;2022-12-07T08:08:51;101382.09;;;2.85;100.00
65880;BME280;52661;51.364;6.054;2022-12-07T08:11:17;101382.25;;;2.88;100.00
65880;BME280;52661;51.364;6.054;2022-12-07T08:13:45;101388.06;;;2.90;100.00
65880;BME280;52661;51.364;6.054;2022-12-07T08:16:12;101390.28;;;2.88;100.00
65880;BME280;52661;51.364;6.054;2022-12-07T08:18:39;101393.91;;;2.92;100.00
65880;BME280;52661;51.364;6.054;2022-12-07T08:21:06;101384.13;;;2.96;100.00
65880;BME280;52661;51.364;6.054;2022-12-07T08:23:32;101390.72;;;2.99;100.00
65880;BME280;52661;51.364;6.054;2022-12-07T08:26:08;101388.81;;;3.00;100.00
65880;BME280;52661;51.364;6.054;2022-12-07T08:28:33;101391.50;;;3.00;100.00
65880;BME280;52661;51.364;6.054;2022-12-07T08:31:03;101385.50;;;3.03;100.00
65880;BME280;52661;51.364;6.054;2022-12-07T08:33:29;101399.84;;;3.07;100.00
65880;BME280;52661;51.364;6.054;2022-12-07T08:35:55;101398.72;;;3.08;100.00
65880;BME280;52661;51.364;6.054;2022-12-07T08:38:24;101398.09;;;3.11;100.00
65880;BME280;52661;51.364;6.054;2022-12-07T08:40:55;101402.53;;;3.07;100.00
65880;BME280;52661;51.364;6.054;2022-12-07T08:43:21;101411.16;;;3.12;100.00
65880;BME280;52661;51.364;6.054;2022-12-07T08:45:53;101411.31;;;3.16;100.00
65880;BME280;52661;51.364;6.054;2022-12-07T08:48:21;101405.94;;;3.16;100.00
65880;BME280;52661;51.364;6.054;2022-12-07T08:50:50;101399.31;;;3.22;100.00
65880;BME280;52661;51.364;6.054;2022-12-07T08:53:16;101405.78;;;3.21;100.00
65880;BME280;52661;51.364;6.054;2022-12-07T08:55:41;101399.31;;;3.22;100.00
65880;BME280;52661;51.364;6.054;2022-12-07T08:58:06;101402.75;;;3.22;100.00
65880;BME280;52661;51.364;6.054;2022-12-07T09:00:32;101391.91;;;3.19;100.00
65880;BME280;52661;51.364;6.054;2022-12-07T09:02:57;101393.16;;;3.21;100.00
65880;BME280;52661;51.364;6.054;2022-12-07T09:05:22;101390.78;;;3.20;100.00
65880;BME280;52661;51.364;6.054;2022-12-07T09:07:51;101387.00;;;3.21;100.00
65880;BME280;52661;51.364;6.054;2022-12-07T09:10:19;101391.59;;;3.20;100.00
65880;BME280;52661;51.364;6.054;2022-12-07T09:12:44;101390.78;;;3.20;100.00
65880;BME280;52661;51.364;6.054;2022-12-07T09:15:09;101392.97;;;3.26;100.00
65880;BME280;52661;51.364;6.054;2022-12-07T09:17:35;101395.16;;;3.33;100.00
65880;BME280;52661;51.364;6.054;2022-12-07T09:20:01;101398.31;;;3.35;100.00
65880;BME280;52661;51.364;6.054;2022-12-07T09:22:30;101397.78;;;3.41;100.00
65880;BME280;52661;51.364;6.054;2022-12-07T09:25:00;101398.88;;;3.49;100.00
65880;BME280;52661;51.364;6.054;2022-12-07T09:27:27;101407.06;;;3.53;100.00
65880;BME280;52661;51.364;6.054;2022-12-07T09:29:53;101399.47;;;3.55;100.00
65880;BME280;52661;51.364;6.054;2022-12-07T09:32:18;101405.16;;;3.53;100.00
65880;BME280;52661;51.364;6.054;2022-12-07T09:34:44;101405.97;;;3.54;100.00
65880;BME280;52661;51.364;6.054;2022-12-07T09:37:09;101411.63;;;3.52;100.00
65880;BME280;52661;51.364;6.054;2022-12-07T09:39:37;101409.75;;;3.53;100.00
65880;BME280;52661;51.364;6.054;2022-12-07T09:42:05;101416.69;;;3.54;100.00
65880;BME280;52661;51.364;6.054;2022-12-07T09:44:31;101411.25;;;3.62;100.00
65880;BME280;52661;51.364;6.054;2022-12-07T09:46:57;101417.75;;;3.61;100.00
65880;BME280;52661;51.364;6.054;2022-12-07T09:49:25;101416.00;;;3.65;100.00
65880;BME280;52661;51.364;6.054;2022-12-07T09:52:17;101413.13;;;3.70;100.00
65880;BME280;52661;51.364;6.054;2022-12-07T09:54:47;101404.09;;;3.75;100.00
65880;BME280;52661;51.364;6.054;2022-12-07T09:57:13;101409.13;;;3.76;100.00
65880;BME280;52661;51.364;6.054;2022-12-07T09:59:39;101411.75;;;3.85;100.00
65880;BME280;52661;51.364;6.054;2022-12-07T10:02:25;101411.91;;;3.88;100.00
65880;BME280;52661;51.364;6.054;2022-12-07T10:04:50;101414.59;;;3.88;100.00
65880;BME280;52661;51.364;6.054;2022-12-07T10:07:16;101410.44;;;3.91;100.00
65880;BME280;52661;51.364;6.054;2022-12-07T10:09:41;101400.19;;;3.93;100.00
65880;BME280;52661;51.364;6.054;2022-12-07T10:12:10;101404.47;;;3.94;100.00
65880;BME280;52661;51.364;6.054;2022-12-07T10:14:40;101391.59;;;4.00;100.00
65880;BME280;52661;51.364;6.054;2022-12-07T10:17:30;101393.84;;;3.97;100.00
65880;BME280;52661;51.364;6.054;2022-12-07T10:22:37;101383.81;;;4.07;100.00
65880;BME280;52661;51.364;6.054;2022-12-07T10:25:18;101381.25;;;4.10;100.00
65880;BME280;52661;51.364;6.054;2022-12-07T10:27:57;101377.25;;;4.16;100.00
65880;BME280;52661;51.364;6.054;2022-12-07T10:30:22;101376.59;;;4.19;100.00
65880;BME280;52661;51.364;6.054;2022-12-07T10:32:47;101370.88;;;4.21;100.00
65880;BME280;52661;51.364;6.054;2022-12-07T10:37:44;101366.00;;;4.23;100.00
65880;BME280;52661;51.364;6.054;2022-12-07T10:43:17;101348.72;;;4.24;100.00
65880;BME280;52661;51.364;6.054;2022-12-07T10:48:23;101356.47;;;4.25;100.00
65880;BME280;52661;51.364;6.054;2022-12-07T10:51:10;101353.44;;;4.27;100.00
65880;BME280;52661;51.364;6.054;2022-12-07T11:05:00;101339.25;;;4.59;100.00
65880;BME280;52661;51.364;6.054;2022-12-07T11:07:38;101342.28;;;4.82;100.00
65880;BME280;52661;51.364;6.054;2022-12-07T11:10:17;101346.91;;;4.93;100.00
65880;BME280;52661;51.364;6.054;2022-12-07T11:13:10;101348.03;;;5.05;100.00
65880;BME280;52661;51.364;6.054;2022-12-07T11:15:51;101345.78;;;5.07;100.00
65880;BME280;52661;51.364;6.054;2022-12-07T11:18:33;101345.34;;;5.05;100.00
65880;BME280;52661;51.364;6.054;2022-12-07T11:32:01;101323.53;;;5.70;100.00
65880;BME280;52661;51.364;6.054;2022-12-07T11:34:39;101317.13;;;5.87;100.00
65880;BME280;52661;51.364;6.054;2022-12-07T11:37:10;101314.63;;;5.94;100.00
65880;BME280;52661;51.364;6.054;2022-12-07T11:39:50;101312.88;;;5.86;100.00
65880;BME280;52661;51.364;6.054;2022-12-07T11:42:30;101304.13;;;5.77;100.00
65880;BME280;52661;51.364;6.054;2022-12-07T11:45:25;101307.72;;;5.69;100.00
65880;BME280;52661;51.364;6.054;2022-12-07T11:48:02;101308.63;;;5.61;100.00
65880;BME280;52661;51.364;6.054;2022-12-07T11:50:45;101300.22;;;5.62;100.00
65880;BME280;52661;51.364;6.054;2022-12-07T11:53:21;101297.75;;;5.57;100.00
65880;BME280;52661;51.364;6.054;2022-12-07T11:56:12;101297.75;;;5.57;100.00
65880;BME280;52661;51.364;6.054;2022-12-07T12:03:42;101299.44;;;5.62;100.00
65880;BME280;52661;51.364;6.054;2022-12-07T12:06:08;101295.06;;;5.57;100.00
65880;BME280;52661;51.364;6.054;2022-12-07T12:08:39;101288.56;;;5.58;100.00
65880;BME280;52661;51.364;6.054;2022-12-07T12:14:08;101296.72;;;5.74;100.00
65880;BME280;52661;51.364;6.054;2022-12-07T12:17:11;101291.66;;;5.72;100.00
65880;BME280;52661;51.364;6.054;2022-12-07T12:20:06;101291.44;;;5.65;100.00
65880;BME280;52661;51.364;6.054;2022-12-07T12:22:53;101280.78;;;5.69;100.00
65880;BME280;52661;51.364;6.054;2022-12-07T12:27:49;101273.38;;;5.66;100.00
65880;BME280;52661;51.364;6.054;2022-12-07T12:33:04;101266.78;;;5.63;100.00
65880;BME280;52661;51.364;6.054;2022-12-07T12:35:35;101260.63;;;5.63;100.00
65880;BME280;52661;51.364;6.054;2022-12-07T12:38:34;101260.28;;;5.64;100.00
65880;BME280;52661;51.364;6.054;2022-12-07T12:47:02;101244.97;;;5.68;100.00
65880;BME280;52661;51.364;6.054;2022-12-07T12:51:58;101241.19;;;5.69;100.00
65880;BME280;52661;51.364;6.054;2022-12-07T12:54:29;101238.94;;;5.71;100.00
65880;BME280;52661;51.364;6.054;2022-12-07T12:56:58;101231.47;;;5.80;100.00
65880;BME280;52661;51.364;6.054;2022-12-07T12:59:28;101230.69;;;5.80;100.00
65880;BME280;52661;51.364;6.054;2022-12-07T13:02:45;101232.28;;;5.81;100.00
65880;BME280;52661;51.364;6.054;2022-12-07T13:10:20;101223.53;;;5.72;100.00
65880;BME280;52661;51.364;6.054;2022-12-07T13:15:41;101226.50;;;5.67;100.00
65880;BME280;52661;51.364;6.054;2022-12-07T13:20:47;101217.53;;;5.63;100.00
65880;BME280;52661;51.364;6.054;2022-12-07T13:23:14;101217.06;;;5.61;100.00
65880;BME280;52661;51.364;6.054;2022-12-07T13:25:59;101217.97;;;5.65;100.00
65880;BME280;52661;51.364;6.054;2022-12-07T13:28:33;101215.53;;;5.60;100.00
65880;BME280;52661;51.364;6.054;2022-12-07T13:31:07;101208.47;;;5.55;100.00
65880;BME280;52661;51.364;6.054;2022-12-07T13:33:35;101205.69;;;5.52;100.00
65880;BME280;52661;51.364;6.054;2022-12-07T13:36:00;101204.00;;;5.47;100.00
65880;BME280;52661;51.364;6.054;2022-12-07T13:38:30;101204.78;;;5.47;100.00
65880;BME280;52661;51.364;6.054;2022-12-07T13:41:10;101208.59;;;5.46;100.00
65880;BME280;52661;51.364;6.054;2022-12-07T13:43:53;101202.09;;;5.47;100.00
65880;BME280;52661;51.364;6.054;2022-12-07T13:46:25;101194.38;;;5.46;100.00
65880;BME280;52661;51.364;6.054;2022-12-07T13:48:52;101199.06;;;5.49;100.00
65880;BME280;52661;51.364;6.054;2022-12-07T13:51:24;101195.44;;;5.57;100.00
65880;BME280;52661;51.364;6.054;2022-12-07T13:53:55;101202.69;;;5.69;100.00
65880;BME280;52661;51.364;6.054;2022-12-07T13:56:28;101197.84;;;5.74;100.00
65880;BME280;52661;51.364;6.054;2022-12-07T13:58:56;101192.88;;;5.76;100.00
65880;BME280;52661;51.364;6.054;2022-12-07T14:01:22;101197.50;;;5.76;100.00
65880;BME280;52661;51.364;6.054;2022-12-07T14:03:47;101200.72;;;5.81;100.00
65880;BME280;52661;51.364;6.054;2022-12-07T14:06:18;101184.81;;;5.76;100.00
65880;BME280;52661;51.364;6.054;2022-12-07T14:08:44;101183.34;;;5.79;100.00
65880;BME280;52661;51.364;6.054;2022-12-07T14:11:17;101183.31;;;5.63;100.00
65880;BME280;52661;51.364;6.054;2022-12-07T14:13:51;101180.53;;;5.60;100.00
65880;BME280;52661;51.364;6.054;2022-12-07T14:16:25;101171.19;;;5.57;100.00
65880;BME280;52661;51.364;6.054;2022-12-07T14:18:51;101173.13;;;5.57;100.00
65880;BME280;52661;51.364;6.054;2022-12-07T14:21:21;101172.00;;;5.58;100.00
65880;BME280;52661;51.364;6.054;2022-12-07T14:24:22;101165.06;;;5.57;100.00
65880;BME280;52661;51.364;6.054;2022-12-07T14:26:49;101170.44;;;5.57;100.00
65880;BME280;52661;51.364;6.054;2022-12-07T14:29:20;101166.50;;;5.54;100.00
65880;BME280;52661;51.364;6.054;2022-12-07T14:31:45;101170.34;;;5.53;100.00
65880;BME280;52661;51.364;6.054;2022-12-07T14:34:14;101162.25;;;5.53;100.00
65880;BME280;52661;51.364;6.054;2022-12-07T14:36:39;101155.41;;;5.56;100.00
65880;BME280;52661;51.364;6.054;2022-12-07T14:39:04;101162.38;;;5.57;100.00
65880;BME280;52661;51.364;6.054;2022-12-07T14:41:30;101153.13;;;5.58;100.00